Time;durP1;ratioP1;P1;durP2;ratioP2;P2;SDS_P1;SDS_P2;PMS_P1;PMS_P2;Temp;Humidity;BMP_temperature;BMP_pressure;BME280_temperature;BME280_humidity;BME280_pressure;Samples;Min_cycle;Max_cycle;Signal;HPM_P1;HPM_P2
2023/07/24 00:02:14;;;;;;;5.70;2.95;;;21.60;97.30;;;;;;2605339;46;20030;31
2023/07/24 00:04:55;;;;;;;5.43;3.10;;;21.50;98.00;;;;;;2586922;54;20026;31
2023/07/24 00:07:32;;;;;;;5.93;2.97;;;21.30;99.90;;;;;;2605133;46;20022;31
2023/07/24 00:10:21;;;;;;;4.65;3.10;;;21.20;99.90;;;;;;2684694;39;21479;31
2023/07/24 00:12:58;;;;;;;6.00;3.30;;;21.20;99.90;;;;;;2586849;54;20030;31
2023/07/24 00:15:35;;;;;;;7.65;3.15;;;21.10;99.90;;;;;;2586798;54;21531;31
2023/07/24 00:18:19;;;;;;;5.07;2.73;;;21.00;99.90;;;;;;2605277;46;20168;31
2023/07/24 00:21:10;;;;;;;7.78;3.13;;;21.00;99.90;;;;;;2586849;54;20851;31
2023/07/24 00:23:46;;;;;;;4.43;2.90;;;20.90;99.90;;;;;;2586936;54;21627;31
2023/07/24 00:26:32;;;;;;;5.50;3.05;;;20.90;99.90;;;;;;2605570;46;20038;31
2023/07/24 00:29:10;;;;;;;4.97;2.97;;;20.90;99.90;;;;;;2586927;54;20914;31
2023/07/24 00:31:50;;;;;;;7.90;3.10;;;20.80;99.90;;;;;;2586811;54;20765;31
2023/07/24 00:34:27;;;;;;;4.03;2.60;;;20.70;99.90;;;;;;2684575;39;20274;31
2023/07/24 00:37:06;;;;;;;;;;;20.70;99.90;;;;;;2586908;54;20027;31
2023/07/24 00:39:41;;;;;;;3.40;2.10;;;20.60;99.90;;;;;;2703146;39;21285;31
2023/07/24 00:42:23;;;;;;;5.67;2.77;;;20.60;99.90;;;;;;2605190;46;20041;31
2023/07/24 00:45:03;;;;;;;5.45;2.95;;;20.60;99.90;;;;;;2684558;39;21561;31
2023/07/24 00:50:19;;;;;;;3.83;2.77;;;20.40;99.90;;;;;;2684676;39;21535;31
2023/07/24 00:52:57;;;;;;;5.63;3.50;;;20.30;99.90;;;;;;2586945;54;20030;31
2023/07/24 00:55:34;;;;;;;7.13;3.53;;;20.30;99.90;;;;;;2586758;54;20889;31
2023/07/24 00:58:17;;;;;;;6.53;3.07;;;20.20;99.90;;;;;;2586859;54;20919;31
2023/07/24 01:03:32;;;;;;;5.80;3.22;;;20.10;99.90;;;;;;2586791;54;20061;31
2023/07/24 01:06:09;;;;;;;6.40;3.45;;;19.90;99.90;;;;;;2586815;54;20026;31
2023/07/24 01:08:50;;;;;;;3.43;2.57;;;19.90;99.90;;;;;;2604803;46;20042;31
2023/07/24 01:11:33;;;;;;;5.25;3.03;;;19.90;99.90;;;;;;2604332;46;20849;31
2023/07/24 01:14:29;;;;;;;6.50;3.40;;;19.80;99.90;;;;;;2586454;54;20037;31
2023/07/24 01:17:08;;;;;;;6.90;2.90;;;19.80;99.90;;;;;;2586636;54;20027;31
2023/07/24 01:19:48;;;;;;;6.20;3.10;;;19.70;99.90;;;;;;2586475;54;20536;31
2023/07/24 01:22:34;;;;;;;4.87;3.30;;;19.60;99.90;;;;;;2586742;54;20034;31
2023/07/24 01:25:13;;;;;;;7.00;3.47;;;19.60;99.90;;;;;;2755007;31;20544;31
2023/07/24 01:27:51;;;;;;;9.10;3.53;;;19.60;99.90;;;;;;2586424;54;20026;31
2023/07/24 01:30:29;;;;;;;6.10;3.17;;;19.60;99.90;;;;;;2586591;54;20096;31
2023/07/24 01:33:06;;;;;;;7.45;3.40;;;19.70;99.90;;;;;;2586451;54;20036;31
2023/07/24 01:35:43;;;;;;;6.90;2.70;;;19.60;99.90;;;;;;2586240;54;20896;31
2023/07/24 01:38:22;;;;;;;6.60;3.43;;;19.60;99.90;;;;;;2586126;54;20959;31
2023/07/24 01:40:55;;;;;;;9.65;3.60;;;19.60;99.90;;;;;;2586361;54;20250;31
2023/07/24 01:46:35;;;;;;;4.68;2.63;;;19.50;99.90;;;;;;2586853;54;20023;31
2023/07/24 01:49:12;;;;;;;8.00;3.75;;;19.40;99.90;;;;;;2586436;54;20027;31
2023/07/24 01:51:51;;;;;;;7.47;2.90;;;19.40;99.90;;;;;;2586568;54;20054;31
2023/07/24 01:54:36;;;;;;;7.70;3.30;;;19.30;99.90;;;;;;2586521;54;20030;31
2023/07/24 01:57:13;;;;;;;5.40;3.30;;;19.40;99.90;;;;;;2604941;46;20852;31
2023/07/24 01:59:52;;;;;;;6.80;3.53;;;19.30;99.90;;;;;;2586428;54;20262;31
2023/07/24 02:02:35;;;;;;;5.47;3.23;;;19.30;99.90;;;;;;2684311;39;20412;31
2023/07/24 02:07:51;;;;;;;4.70;3.43;;;19.30;99.90;;;;;;2604413;46;20938;31
2023/07/24 02:13:33;;;;;;;7.40;3.33;;;19.20;99.90;;;;;;2684078;39;20566;31
2023/07/24 02:36:46;;;;;;;7.40;3.65;;;19.20;99.90;;;;;;2585168;54;21000;31
2023/07/24 02:39:35;;;;;;;10.00;3.58;;;19.20;99.90;;;;;;2597992;46;20058;31
2023/07/24 02:48:08;;;;;;;6.20;3.35;;;19.30;99.90;;;;;;2585596;54;20024;31
2023/07/24 02:53:38;;;;;;;6.80;3.20;;;19.20;99.90;;;;;;2603890;46;20890;31
2023/07/24 02:56:20;;;;;;;7.80;3.50;;;19.30;99.90;;;;;;2586067;54;20027;31
2023/07/24 02:58:59;;;;;;;8.02;3.47;;;19.20;99.90;;;;;;2586482;54;20964;31
2023/07/24 03:01:45;;;;;;;6.00;3.30;;;19.20;99.90;;;;;;2586252;54;20122;31
2023/07/24 03:04:31;;;;;;;6.50;3.35;;;19.20;99.90;;;;;;2586389;54;20023;31
2023/07/24 03:07:08;;;;;;;7.43;3.20;;;19.30;99.90;;;;;;2586410;54;20049;31
2023/07/24 03:09:57;;;;;;;11.57;3.20;;;19.30;99.90;;;;;;2590146;46;20865;31
2023/07/24 03:12:43;;;;;;;4.70;2.80;;;19.20;99.90;;;;;;2604676;46;20032;31
2023/07/24 03:15:34;;;;;;;5.80;3.33;;;19.20;99.90;;;;;;2586396;54;20022;31
2023/07/24 03:18:13;;;;;;;5.38;3.10;;;19.20;99.90;;;;;;2585340;54;20026;31
2023/07/24 03:29:52;;;;;;;6.00;3.08;;;19.00;99.90;;;;;;2586607;46;20029;31
2023/07/24 03:32:26;;;;;;;7.37;4.10;;;19.00;99.90;;;;;;2592812;46;20036;31
2023/07/24 03:37:56;;;;;;;8.77;3.33;;;19.00;99.90;;;;;;2585332;54;20030;31
2023/07/24 03:40:42;;;;;;;9.40;3.42;;;19.00;99.90;;;;;;2600049;46;20027;31
2023/07/24 03:43:25;;;;;;;6.83;3.33;;;19.00;99.90;;;;;;2585282;54;20881;31
2023/07/24 03:46:04;;;;;;;7.80;3.30;;;19.10;99.90;;;;;;2585810;54;21249;31
2023/07/24 03:48:40;;;;;;;7.63;3.47;;;19.10;99.90;;;;;;2684065;39;20687;31
2023/07/24 03:51:38;;;;;;;8.30;3.40;;;19.20;99.90;;;;;;2586193;54;20038;31
2023/07/24 03:54:13;;;;;;;4.50;3.10;;;19.20;99.90;;;;;;2586226;54;20843;31
2023/07/24 03:56:51;;;;;;;7.68;3.40;;;19.30;99.90;;;;;;2603917;47;20788;31
2023/07/24 03:59:27;;;;;;;7.63;3.40;;;19.40;99.90;;;;;;2604193;47;20576;31
2023/07/24 04:02:04;;;;;;;7.65;3.20;;;19.40;99.90;;;;;;2585858;54;20582;31
2023/07/24 04:04:44;;;;;;;5.37;3.43;;;19.50;99.90;;;;;;2586045;54;20023;31
2023/07/24 04:07:22;;;;;;;7.20;3.70;;;19.50;99.90;;;;;;2586116;54;20595;31
2023/07/24 04:10:00;;;;;;;10.10;3.78;;;19.60;99.90;;;;;;2586209;54;20077;31
2023/07/24 04:12:40;;;;;;;7.00;3.30;;;19.60;99.90;;;;;;2602506;47;20033;31
2023/07/24 04:15:18;;;;;;;10.07;3.83;;;19.70;99.90;;;;;;2585883;54;20026;31
2023/07/24 05:30:41;;;;;;;15.35;5.18;;;21.40;99.90;;;;;;2603924;54;20030;31
2023/07/24 05:33:19;;;;;;;13.10;4.65;;;21.50;99.90;;;;;;2586789;54;20137;31
2023/07/24 05:36:02;;;;;;;6.60;3.60;;;21.50;99.90;;;;;;2586625;54;20101;31
2023/07/24 05:41:43;;;;;;;8.27;3.75;;;21.70;99.90;;;;;;2585828;54;20918;31
2023/07/24 05:44:17;;;;;;;3.85;3.22;;;21.80;99.90;;;;;;2585565;54;20050;31
2023/07/24 05:46:57;;;;;;;6.00;3.38;;;22.00;99.90;;;;;;2695447;39;21522;31
2023/07/24 05:58:22;;;;;;;5.20;4.00;;;22.40;99.90;;;;;;2603930;46;20146;31
2023/07/24 06:00:56;;;;;;;8.15;3.97;;;22.50;99.90;;;;;;2585633;54;20069;31
2023/07/24 06:09:33;;;;;;;7.60;3.50;;;22.70;99.90;;;;;;2585971;54;20022;31
2023/07/24 06:15:10;;;;;;;6.07;3.38;;;22.80;99.90;;;;;;2585476;54;20022;31
2023/07/24 06:17:46;;;;;;;8.23;3.73;;;22.80;99.90;;;;;;2586495;54;21481;31
2023/07/24 06:20:24;;;;;;;4.82;3.40;;;22.80;99.90;;;;;;2604808;46;20850;31
2023/07/24 06:22:59;;;;;;;10.60;3.55;;;22.90;99.90;;;;;;2604746;46;20175;31
2023/07/24 06:25:43;;;;;;;8.65;4.10;;;22.90;99.90;;;;;;2585830;54;20744;31
2023/07/24 06:28:21;;;;;;;4.60;3.57;;;23.00;99.90;;;;;;2586528;54;21509;31
2023/07/24 06:31:02;;;;;;;8.60;4.10;;;22.90;99.90;;;;;;2586542;54;21596;31
2023/07/24 06:36:41;;;;;;;6.80;3.75;;;23.00;99.90;;;;;;2586200;54;20034;31
2023/07/24 06:39:24;;;;;;;8.95;4.70;;;23.10;99.90;;;;;;2586334;54;20073;31
2023/07/24 06:42:09;;;;;;;7.78;3.90;;;23.10;99.90;;;;;;2586467;54;20060;31
2023/07/24 06:44:53;;;;;;;7.50;4.20;;;23.20;99.90;;;;;;2586245;54;20026;31
2023/07/24 06:50:55;;;;;;;5.57;3.63;;;23.30;99.90;;;;;;2603592;54;20022;31
2023/07/24 06:53:35;;;;;;;9.10;4.20;;;23.40;99.90;;;;;;2586312;54;20033;31
2023/07/24 07:05:35;;;;;;;8.75;4.50;;;24.00;99.90;;;;;;2585499;54;20684;31
2023/07/24 07:08:14;;;;;;;6.10;3.67;;;24.40;99.90;;;;;;2585898;54;20552;31
2023/07/24 07:14:08;;;;;;;9.40;4.05;;;25.10;99.90;;;;;;2586241;54;19943;31
2023/07/24 07:16:44;;;;;;;6.63;3.60;;;25.50;99.90;;;;;;2585940;54;20023;31
2023/07/24 07:19:24;;;;;;;11.10;4.23;;;25.90;99.90;;;;;;2586266;54;21030;31
2023/07/24 07:22:07;;;;;;;6.45;3.40;;;26.30;99.90;;;;;;2604330;46;20555;31
2023/07/24 07:27:39;;;;;;;6.75;3.95;;;27.10;99.90;;;;;;2604078;46;20034;31
2023/07/24 07:30:28;;;;;;;5.97;3.77;;;27.60;99.90;;;;;;2586686;54;20093;31
2023/07/24 07:33:08;;;;;;;5.90;3.73;;;28.00;99.90;;;;;;2604946;46;20027;31
2023/07/24 07:35:47;;;;;;;4.80;3.50;;;28.40;99.90;;;;;;2586265;54;20026;31
2023/07/24 07:38:22;;;;;;;5.80;3.60;;;28.80;98.40;;;;;;2586473;54;20748;31
2023/07/24 07:41:07;;;;;;;8.50;3.43;;;28.90;97.60;;;;;;2585396;54;20117;31
2023/07/24 07:43:50;;;;;;;5.00;3.50;;;29.10;96.80;;;;;;2586181;54;20921;31
2023/07/24 07:46:28;;;;;;;5.20;3.45;;;29.40;96.30;;;;;;2586452;54;20027;31
2023/07/24 07:49:06;;;;;;;6.50;3.78;;;29.60;94.80;;;;;;2586398;54;20532;31
2023/07/24 07:51:46;;;;;;;4.90;3.50;;;29.80;94.10;;;;;;2586365;54;20030;31
2023/07/24 07:54:31;;;;;;;7.20;3.80;;;30.10;93.10;;;;;;2586130;54;21419;31
2023/07/24 07:57:14;;;;;;;6.35;3.85;;;30.50;92.60;;;;;;2603978;47;20128;31
2023/07/24 07:59:58;;;;;;;5.60;4.15;;;30.80;91.00;;;;;;2586176;54;20898;31
2023/07/24 08:02:47;;;;;;;5.60;3.65;;;31.10;90.50;;;;;;2585693;54;20919;31
2023/07/24 08:05:25;;;;;;;5.57;4.38;;;31.30;88.70;;;;;;2586156;54;20882;31
2023/07/24 08:08:17;;;;;;;7.63;4.20;;;31.40;86.30;;;;;;2592960;47;20888;31
2023/07/24 08:11:05;;;;;;;5.60;4.00;;;31.70;85.00;;;;;;2585822;54;20026;31
2023/07/24 08:16:23;;;;;;;5.13;4.15;;;31.90;81.50;;;;;;2585205;54;20096;31
2023/07/24 08:19:23;;;;;;;9.67;4.33;;;32.00;79.80;;;;;;2585764;54;20040;31
2023/07/24 08:22:07;;;;;;;6.35;4.75;;;32.20;80.70;;;;;;2586908;54;20158;31
2023/07/24 08:24:50;;;;;;;7.38;3.90;;;32.30;78.70;;;;;;2586407;54;20031;31
2023/07/24 08:27:31;;;;;;;7.18;4.65;;;32.30;78.20;;;;;;2586962;54;20106;31
2023/07/24 08:30:19;;;;;;;7.47;4.30;;;32.40;76.90;;;;;;2585957;54;20157;31
2023/07/24 08:33:00;;;;;;;7.30;4.17;;;32.50;77.00;;;;;;2586978;54;20143;31
2023/07/24 08:35:36;;;;;;;7.17;4.17;;;32.50;76.30;;;;;;2587029;54;20325;31
2023/07/24 08:38:20;;;;;;;4.65;4.15;;;32.90;78.40;;;;;;2593424;46;20849;31
2023/07/24 08:41:20;;;;;;;5.63;4.40;;;32.90;74.70;;;;;;2586033;54;20883;31
2023/07/24 08:43:59;;;;;;;6.00;4.40;;;33.10;74.00;;;;;;2605382;46;20850;31
2023/07/24 08:46:47;;;;;;;6.72;5.05;;;33.10;74.50;;;;;;2585843;54;20781;31
2023/07/24 08:49:27;;;;;;;8.50;5.10;;;33.40;75.00;;;;;;2586733;54;19941;31
2023/07/24 08:52:11;;;;;;;6.03;4.80;;;33.50;74.60;;;;;;2587031;54;20906;31
2023/07/24 08:57:59;;;;;;;12.60;4.90;;;33.50;73.20;;;;;;2586386;54;20254;31
2023/07/24 09:00:41;;;;;;;6.10;4.80;;;33.50;72.80;;;;;;2605167;46;20934;31
2023/07/24 09:03:18;;;;;;;7.70;4.30;;;33.60;72.30;;;;;;2586402;54;20338;31
2023/07/24 09:06:15;;;;;;;5.75;4.50;;;33.80;73.10;;;;;;2605349;46;20026;31
2023/07/24 09:09:03;;;;;;;8.90;4.43;;;33.90;71.20;;;;;;2586583;54;20670;31
2023/07/24 09:11:54;;;;;;;7.40;4.90;;;33.70;70.70;;;;;;2605283;46;20874;31
2023/07/24 09:14:45;;;;;;;6.18;4.68;;;33.60;71.10;;;;;;2586667;54;20931;31
2023/07/24 09:17:19;;;;;;;8.33;4.67;;;33.70;72.10;;;;;;2586630;54;20967;31
2023/07/24 09:20:18;;;;;;;6.45;4.90;;;33.80;73.50;;;;;;2586827;54;20027;31
2023/07/24 09:23:13;;;;;;;4.60;4.10;;;33.70;71.50;;;;;;2586436;54;20252;31
2023/07/24 09:26:01;;;;;;;6.65;3.40;;;33.40;72.50;;;;;;2586727;54;20243;31
2023/07/24 09:28:56;;;;;;;3.92;3.25;;;33.20;71.30;;;;;;2605083;46;20042;31
2023/07/24 09:31:52;;;;;;;6.30;3.90;;;33.00;72.60;;;;;;2586627;54;20026;31
2023/07/24 09:37:10;;;;;;;5.30;4.20;;;32.90;71.90;;;;;;2604695;46;20026;31
2023/07/24 09:39:56;;;;;;;6.07;4.50;;;32.90;72.00;;;;;;2586749;54;20916;31
2023/07/24 09:42:34;;;;;;;7.15;4.20;;;32.90;72.10;;;;;;2586726;54;20031;31
2023/07/24 09:45:28;;;;;;;7.70;4.20;;;32.90;71.20;;;;;;2586576;54;20049;31
2023/07/24 09:48:24;;;;;;;5.70;4.43;;;33.10;71.40;;;;;;2586479;54;20026;31
2023/07/24 09:51:07;;;;;;;7.47;4.47;;;33.20;71.40;;;;;;2586286;54;20060;31
2023/07/24 09:53:54;;;;;;;5.43;4.45;;;33.40;70.60;;;;;;2586620;54;20033;31
2023/07/24 09:56:40;;;;;;;6.28;4.68;;;33.60;71.50;;;;;;2604703;46;20030;31
2023/07/24 09:59:27;;;;;;;9.05;4.50;;;33.80;71.70;;;;;;2586178;54;20038;31
2023/07/24 10:02:04;;;;;;;5.93;4.63;;;34.00;71.10;;;;;;2586549;54;20027;31
2023/07/24 10:04:43;;;;;;;5.57;4.43;;;34.20;70.50;;;;;;2586464;54;20973;31
2023/07/24 10:07:22;;;;;;;9.27;4.47;;;34.30;69.00;;;;;;2586795;54;20774;31
2023/07/24 10:10:00;;;;;;;6.43;4.73;;;34.40;70.70;;;;;;2586763;54;20033;31
2023/07/24 10:12:50;;;;;;;5.15;4.50;;;34.50;68.50;;;;;;2586284;54;20857;31
2023/07/24 10:15:31;;;;;;;6.87;4.17;;;34.50;68.80;;;;;;2586133;54;20134;31
2023/07/24 10:18:12;;;;;;;6.00;4.57;;;34.30;68.10;;;;;;2596398;46;20026;31
2023/07/24 10:20:53;;;;;;;6.80;5.10;;;34.30;68.40;;;;;;2585465;54;20023;31
2023/07/24 10:23:31;;;;;;;7.43;4.70;;;34.50;68.40;;;;;;2586301;54;20157;31
2023/07/24 10:26:10;;;;;;;8.77;4.47;;;34.50;67.60;;;;;;2601954;46;20736;31
2023/07/24 10:28:57;;;;;;;6.00;4.90;;;34.30;67.70;;;;;;2586540;54;20032;31
2023/07/24 10:31:35;;;;;;;7.55;4.80;;;34.10;68.10;;;;;;2585725;54;21425;31
2023/07/24 10:34:15;;;;;;;5.20;4.70;;;33.90;68.80;;;;;;2599113;46;20031;31
2023/07/24 10:36:52;;;;;;;7.25;5.10;;;33.80;68.50;;;;;;2586514;54;19958;31
2023/07/24 10:39:39;;;;;;;7.70;5.30;;;33.60;69.00;;;;;;2586402;54;20719;31
2023/07/24 10:42:27;;;;;;;8.45;4.65;;;33.30;68.20;;;;;;2604668;46;20922;31
2023/07/24 10:45:15;;;;;;;8.25;4.75;;;33.00;69.20;;;;;;2586435;54;20801;31
2023/07/24 10:50:30;;;;;;;;;;;32.40;69.60;;;;;;2586731;54;20918;31
2023/07/24 10:53:08;;;;;;;5.95;4.15;;;32.10;70.20;;;;;;2601872;46;20728;31
2023/07/24 10:55:44;;;;;;;6.00;4.90;;;32.00;71.40;;;;;;2684122;39;20474;31
2023/07/24 10:58:21;;;;;;;8.17;4.83;;;31.70;70.50;;;;;;2586340;54;20083;31
2023/07/24 11:01:01;;;;;;;6.45;5.10;;;31.50;71.60;;;;;;2586181;54;20027;31
2023/07/24 11:03:36;;;;;;;6.63;4.68;;;31.50;72.10;;;;;;2586400;54;20029;31
2023/07/24 11:06:44;;;;;;;8.43;5.23;;;31.40;72.70;;;;;;2604648;46;20977;31
2023/07/24 11:09:19;;;;;;;8.40;5.35;;;31.50;72.90;;;;;;2590396;46;20867;31
2023/07/24 11:12:01;;;;;;;12.27;5.32;;;31.50;72.50;;;;;;2586634;54;20927;31
2023/07/24 11:14:39;;;;;;;10.60;5.60;;;31.40;72.60;;;;;;2586245;54;21256;31
2023/07/24 11:17:20;;;;;;;9.98;5.72;;;31.40;73.10;;;;;;2604823;46;20925;31
2023/07/24 11:19:55;;;;;;;7.27;4.97;;;31.40;72.80;;;;;;2586371;54;20920;31
2023/07/24 11:22:30;;;;;;;8.70;5.65;;;31.40;73.00;;;;;;2586439;54;20035;31
2023/07/24 11:25:09;;;;;;;6.60;4.55;;;31.50;72.80;;;;;;2603775;46;20088;31
2023/07/24 11:27:47;;;;;;;7.05;5.50;;;31.60;72.60;;;;;;2585478;54;20871;31
2023/07/24 11:30:29;;;;;;;6.30;4.93;;;31.80;72.80;;;;;;2585172;54;20737;31
2023/07/24 11:33:13;;;;;;;7.43;4.53;;;32.10;72.60;;;;;;2586404;54;20769;31
2023/07/24 11:35:55;;;;;;;6.68;4.90;;;32.10;71.70;;;;;;2604713;46;20088;31
2023/07/24 11:38:35;;;;;;;6.95;4.95;;;31.90;71.40;;;;;;2586491;54;20027;31
2023/07/24 11:41:12;;;;;;;6.35;5.28;;;31.80;72.10;;;;;;2585941;54;20054;31
2023/07/24 11:43:53;;;;;;;7.17;5.43;;;31.50;71.50;;;;;;2586267;54;20842;31
2023/07/24 11:46:28;;;;;;;6.25;5.05;;;31.20;72.60;;;;;;2586107;54;20089;31
2023/07/24 11:49:08;;;;;;;6.80;4.82;;;31.00;74.00;;;;;;2585698;54;20038;31
2023/07/24 11:51:49;;;;;;;9.45;5.40;;;30.80;75.50;;;;;;2691703;39;21497;31
2023/07/24 11:54:27;;;;;;;6.20;5.20;;;30.80;74.90;;;;;;2585894;54;20054;31
2023/07/24 11:57:05;;;;;;;9.00;5.57;;;30.80;75.60;;;;;;2586220;54;20973;31
2023/07/24 11:59:44;;;;;;;8.30;5.10;;;30.90;75.80;;;;;;2595292;47;20770;31
2023/07/24 12:02:25;;;;;;;8.60;5.00;;;31.00;75.20;;;;;;2585990;54;20124;31
2023/07/24 12:05:07;;;;;;;8.90;5.70;;;31.00;75.10;;;;;;2586306;54;20234;31
2023/07/24 12:07:46;;;;;;;7.85;5.60;;;31.10;74.60;;;;;;2586111;54;20054;31
2023/07/24 12:10:32;;;;;;;10.35;5.57;;;31.20;75.40;;;;;;2586165;54;21029;31
2023/07/24 12:13:15;;;;;;;10.27;5.70;;;31.30;75.70;;;;;;2586214;54;20023;31
2023/07/24 12:15:54;;;;;;;10.27;5.47;;;31.50;75.80;;;;;;2585927;54;20859;31
2023/07/24 12:18:33;;;;;;;7.25;5.50;;;31.60;73.80;;;;;;2585990;54;20046;31
2023/07/24 12:21:10;;;;;;;11.00;5.65;;;31.60;74.10;;;;;;2604812;47;20936;31
2023/07/24 12:23:50;;;;;;;5.90;5.25;;;31.80;74.30;;;;;;2596446;47;20065;31
2023/07/24 12:26:27;;;;;;;7.23;6.00;;;31.80;74.50;;;;;;2586147;54;20890;31
2023/07/24 12:29:04;;;;;;;9.05;6.15;;;31.80;73.00;;;;;;2584933;54;20142;31
2023/07/24 12:31:42;;;;;;;8.47;5.87;;;31.70;73.80;;;;;;2604384;47;20027;31
2023/07/24 12:34:18;;;;;;;8.75;6.05;;;31.60;73.70;;;;;;2586278;54;20748;31
2023/07/24 12:36:59;;;;;;;6.70;5.93;;;31.60;75.00;;;;;;2585850;54;20085;31
2023/07/24 12:39:35;;;;;;;11.60;6.55;;;31.70;75.10;;;;;;2585166;54;20018;31
2023/07/24 12:42:13;;;;;;;7.60;6.10;;;31.60;73.10;;;;;;2586253;54;20836;31
2023/07/24 12:44:51;;;;;;;10.20;6.75;;;31.50;72.90;;;;;;2604048;47;20026;31
2023/07/24 12:47:32;;;;;;;13.52;6.97;;;31.50;73.50;;;;;;2604556;47;20057;31
2023/07/24 12:50:13;;;;;;;8.00;6.40;;;31.50;73.40;;;;;;2586141;54;20968;31
2023/07/24 12:52:52;;;;;;;7.32;5.88;;;31.50;73.60;;;;;;2585015;54;20157;31
2023/07/24 12:55:38;;;;;;;10.75;6.20;;;31.50;74.10;;;;;;2585952;54;20032;31
2023/07/24 12:58:16;;;;;;;11.15;7.00;;;31.40;74.20;;;;;;2590181;47;20023;31
2023/07/24 13:00:55;;;;;;;8.07;6.65;;;31.30;74.60;;;;;;2603890;47;20052;31
2023/07/24 13:03:30;;;;;;;8.48;6.80;;;31.20;74.20;;;;;;2604261;47;20150;31
2023/07/24 13:06:09;;;;;;;8.45;7.22;;;31.30;74.70;;;;;;2586802;54;20051;31
2023/07/24 13:08:50;;;;;;;9.70;6.55;;;31.30;75.30;;;;;;2586660;54;20034;31
2023/07/24 13:11:29;;;;;;;11.85;7.35;;;31.30;75.20;;;;;;2586831;54;20859;31
2023/07/24 13:14:05;;;;;;;14.85;6.95;;;31.20;75.10;;;;;;2585738;54;20026;31
2023/07/24 13:16:47;;;;;;;8.60;6.90;;;31.20;74.40;;;;;;2604874;46;20039;31
2023/07/24 13:19:22;;;;;;;10.95;6.80;;;31.20;74.50;;;;;;2586965;46;20916;31
2023/07/24 13:22:05;;;;;;;8.80;6.65;;;31.20;74.60;;;;;;2586934;54;20820;31
2023/07/24 13:24:45;;;;;;;9.80;7.40;;;31.30;74.60;;;;;;2586882;54;20054;31
2023/07/24 13:30:14;;;;;;;7.40;6.43;;;31.20;75.00;;;;;;2586560;54;20265;31
2023/07/24 13:32:50;;;;;;;12.30;7.32;;;31.20;74.20;;;;;;2585791;54;20920;31
2023/07/24 13:35:23;;;;;;;;;;;31.10;73.70;;;;;;2605302;46;20771;31
2023/07/24 13:43:48;;;;;;;8.30;6.40;;;31.10;74.50;;;;;;2683420;39;20432;31
2023/07/24 13:46:35;;;;;;;9.38;6.50;;;31.10;74.80;;;;;;2585409;54;20030;31
2023/07/24 13:49:23;;;;;;;9.90;6.75;;;31.10;74.10;;;;;;2586686;54;20947;31
2023/07/24 13:54:59;;;;;;;9.40;6.77;;;31.00;74.30;;;;;;2586809;54;20092;31
2023/07/24 13:57:37;;;;;;;8.73;6.95;;;31.00;74.40;;;;;;2586343;54;20258;31
2023/07/24 14:00:15;;;;;;;9.25;6.30;;;30.90;74.10;;;;;;2684200;39;20448;31
2023/07/24 14:02:56;;;;;;;8.13;5.82;;;30.90;74.00;;;;;;2605135;46;20896;31
2023/07/24 14:05:33;;;;;;;8.50;6.40;;;31.00;74.40;;;;;;2586461;54;20867;31
2023/07/24 14:08:15;;;;;;;9.63;5.67;;;31.10;73.20;;;;;;2586339;54;20767;31
2023/07/24 14:11:14;;;;;;;6.75;5.75;;;31.10;73.20;;;;;;2586284;54;21203;31
2023/07/24 14:16:32;;;;;;;8.65;6.47;;;31.20;73.90;;;;;;2586460;54;20032;31
2023/07/24 14:19:11;;;;;;;9.20;6.53;;;31.20;74.30;;;;;;2754918;31;20536;31
2023/07/24 14:21:47;;;;;;;8.30;6.25;;;31.20;73.50;;;;;;2586430;54;20305;31
2023/07/24 14:24:25;;;;;;;9.77;7.25;;;31.20;73.70;;;;;;2586579;54;20823;31
2023/07/24 14:26:59;;;;;;;12.15;6.90;;;31.30;74.40;;;;;;2586473;54;20498;31
2023/07/24 14:29:38;;;;;;;8.45;6.78;;;31.40;74.20;;;;;;2585878;54;20885;31
2023/07/24 14:32:18;;;;;;;8.10;6.33;;;31.40;74.00;;;;;;2585848;54;20027;31
2023/07/24 14:34:54;;;;;;;7.88;6.28;;;31.50;73.70;;;;;;2586620;54;20029;31
2023/07/24 14:40:20;;;;;;;9.20;6.60;;;31.40;73.70;;;;;;2586042;54;20030;31
2023/07/24 14:43:00;;;;;;;7.90;6.97;;;31.30;73.60;;;;;;2605123;46;20034;31
2023/07/24 14:45:42;;;;;;;11.63;6.77;;;31.20;73.60;;;;;;2586612;54;21197;31
2023/07/24 14:48:18;;;;;;;7.87;6.33;;;31.20;74.90;;;;;;2586252;54;20029;31
2023/07/24 14:51:00;;;;;;;9.73;7.30;;;31.20;75.20;;;;;;2604974;46;20053;31
2023/07/24 14:53:36;;;;;;;8.15;5.90;;;31.20;74.90;;;;;;2604760;46;20755;31
2023/07/24 14:56:12;;;;;;;9.27;6.38;;;31.30;75.40;;;;;;2585482;54;20052;31
2023/07/24 14:58:49;;;;;;;9.03;7.00;;;31.40;76.10;;;;;;2586277;54;21809;31
2023/07/24 15:01:28;;;;;;;9.70;6.30;;;31.40;75.70;;;;;;2589770;46;20930;31
2023/07/24 15:04:07;;;;;;;9.02;6.53;;;31.30;75.30;;;;;;2585323;54;20060;31
2023/07/24 15:06:46;;;;;;;7.10;5.82;;;31.20;75.60;;;;;;2586449;54;20864;31
2023/07/24 15:09:20;;;;;;;9.38;6.60;;;31.20;75.50;;;;;;2604525;46;20038;31
2023/07/24 15:11:59;;;;;;;9.27;6.47;;;31.20;75.00;;;;;;2604685;46;20042;31
2023/07/24 15:14:43;;;;;;;8.80;6.70;;;31.20;75.20;;;;;;2604713;46;20033;31
2023/07/24 15:17:24;;;;;;;8.83;6.77;;;31.20;75.50;;;;;;2586425;54;21135;31
2023/07/24 15:20:06;;;;;;;9.35;6.65;;;31.00;75.40;;;;;;2604568;46;20054;31
2023/07/24 15:22:43;;;;;;;8.90;6.65;;;30.90;75.00;;;;;;2684132;39;20462;31
2023/07/24 15:25:19;;;;;;;9.47;6.90;;;30.80;75.40;;;;;;2586438;54;20108;31
2023/07/24 15:27:54;;;;;;;8.90;7.35;;;30.70;75.10;;;;;;2585640;54;20029;31
2023/07/24 15:30:30;;;;;;;8.60;6.70;;;30.60;75.50;;;;;;2604372;46;20849;31
2023/07/24 15:33:15;;;;;;;11.00;6.65;;;30.50;75.30;;;;;;2585505;54;21151;31
2023/07/24 15:35:52;;;;;;;8.70;6.65;;;30.40;75.60;;;;;;2754097;31;21573;31
2023/07/24 15:38:29;;;;;;;9.90;6.60;;;30.30;75.90;;;;;;2585410;54;20055;31
2023/07/24 15:41:10;;;;;;;10.32;6.95;;;30.30;76.30;;;;;;2585421;54;20022;31
2023/07/24 15:43:52;;;;;;;7.53;6.35;;;30.30;77.00;;;;;;2604674;46;20026;31
2023/07/24 15:46:31;;;;;;;12.93;6.47;;;30.20;77.40;;;;;;2586359;54;20900;31
2023/07/24 15:49:10;;;;;;;10.40;6.30;;;30.20;77.40;;;;;;2604868;46;20867;31
2023/07/24 15:51:51;;;;;;;11.87;7.00;;;30.20;77.80;;;;;;2586119;54;20081;31
2023/07/24 15:54:28;;;;;;;11.63;7.00;;;30.20;77.90;;;;;;2585756;54;20026;31
2023/07/24 15:57:04;;;;;;;9.15;7.30;;;30.10;78.70;;;;;;2586295;54;20903;31
2023/07/24 15:59:41;;;;;;;10.60;6.70;;;30.10;78.90;;;;;;2586426;54;20916;31
2023/07/24 16:02:17;;;;;;;11.25;7.40;;;30.10;78.70;;;;;;2586307;54;20875;31
2023/07/24 16:05:00;;;;;;;8.95;6.32;;;30.10;78.90;;;;;;2585919;54;20055;31
2023/07/24 16:07:35;;;;;;;9.50;6.65;;;30.10;78.90;;;;;;2586225;54;20752;31
2023/07/24 16:10:10;;;;;;;8.07;6.40;;;30.00;79.60;;;;;;2586293;54;20883;31
2023/07/24 16:12:50;;;;;;;9.75;7.00;;;30.00;79.90;;;;;;2585921;54;20042;31
2023/07/24 16:15:26;;;;;;;9.15;6.22;;;29.90;79.90;;;;;;2604232;47;21226;31
2023/07/24 16:18:05;;;;;;;9.77;6.90;;;29.90;79.80;;;;;;2585251;54;20022;31
2023/07/24 16:20:43;;;;;;;8.65;6.88;;;29.80;79.50;;;;;;2601817;47;20802;31
2023/07/24 16:23:22;;;;;;;10.55;7.00;;;29.80;79.60;;;;;;2585130;54;20030;31
2023/07/24 16:25:59;;;;;;;12.60;6.85;;;29.70;79.50;;;;;;2585216;54;20026;31
2023/07/24 16:28:36;;;;;;;9.35;6.22;;;29.70;79.70;;;;;;2585100;54;20026;31
2023/07/24 16:31:13;;;;;;;10.95;6.53;;;29.60;80.30;;;;;;2604609;47;20916;31
2023/07/24 16:33:52;;;;;;;14.20;7.53;;;29.70;82.00;;;;;;2604606;47;20023;31
2023/07/24 16:36:30;;;;;;;9.30;6.60;;;29.60;82.20;;;;;;2585247;54;20875;31
2023/07/24 16:39:08;;;;;;;11.68;6.88;;;29.60;81.80;;;;;;2586534;54;20897;31
2023/07/24 16:41:45;;;;;;;9.82;6.78;;;29.60;81.60;;;;;;2586915;54;20027;31
2023/07/24 16:44:20;;;;;;;7.10;5.93;;;29.50;83.60;;;;;;2586761;54;20056;31
2023/07/24 16:47:10;;;;;;;11.05;7.00;;;29.50;83.10;;;;;;2587179;54;20931;31
2023/07/24 16:49:46;;;;;;;8.65;6.50;;;29.50;82.60;;;;;;2586933;54;20751;31
2023/07/24 16:52:25;;;;;;;10.45;7.43;;;29.40;82.50;;;;;;2586687;54;20053;31
2023/07/24 16:55:02;;;;;;;8.02;6.70;;;29.40;83.30;;;;;;2586735;54;20022;31
2023/07/24 16:57:42;;;;;;;10.43;7.25;;;29.30;82.80;;;;;;2586886;54;20761;31
2023/07/24 17:00:24;;;;;;;8.13;6.75;;;29.30;82.70;;;;;;2587016;54;20029;31
2023/07/24 17:03:01;;;;;;;10.20;6.55;;;29.20;82.90;;;;;;2605321;46;20041;31
2023/07/24 17:05:39;;;;;;;9.30;6.60;;;29.20;82.90;;;;;;2586897;54;20749;31
2023/07/24 17:08:17;;;;;;;9.90;7.15;;;29.10;83.00;;;;;;2586871;54;20976;31
2023/07/24 17:10:53;;;;;;;11.85;6.95;;;29.10;83.40;;;;;;2586611;54;20962;31
2023/07/24 17:13:34;;;;;;;11.45;7.22;;;29.00;83.60;;;;;;2586557;54;20843;31
2023/07/24 17:18:40;;;;;;;9.32;7.55;;;28.90;84.40;;;;;;2605085;46;20032;31
2023/07/24 17:21:17;;;;;;;12.02;7.53;;;28.80;84.70;;;;;;2605192;46;20027;31
2023/07/24 17:24:02;;;;;;;9.55;7.65;;;28.80;84.50;;;;;;2586632;54;21214;31
2023/07/24 17:26:38;;;;;;;10.38;7.45;;;28.70;84.90;;;;;;2586483;54;20891;31